Time;durP1;ratioP1;P1;durP2;ratioP2;P2;SDS_P1;SDS_P2;PMS_P1;PMS_P2;Temp;Humidity;BMP_temperature;BMP_pressure;BME280_temperature;BME280_humidity;BME280_pressure;Samples;Min_cycle;Max_cycle;Signal;HPM_P1;HPM_P2
2022/10/18 00:02:16;;;;;;;;;;;;;;;21.89;62.34;101973.50;5013960;28;2782;-57
2022/10/18 00:04:42;;;;;;;;;;;;;;;21.87;62.04;101976.28;5011699;28;2976;-55
2022/10/18 00:07:09;;;;;;;;;;;;;;;21.87;62.30;101977.03;5010804;28;2973;-58
2022/10/18 00:09:35;;;;;;;;;;;;;;;21.88;62.12;101977.78;5015590;28;2574;-58
2022/10/18 00:12:01;;;;;;;;;;;;;;;21.86;62.05;101980.56;5007941;28;2794;-57
2022/10/18 00:14:28;;;;;;;;;;;;;;;21.87;62.27;101982.03;5003792;28;2849;-58
2022/10/18 00:16:54;;;;;;;;;;;;;;;21.84;62.23;101984.06;5009564;28;2636;-58
2022/10/18 00:19:20;;;;;;;;;;;;;;;21.86;62.34;101980.56;5009927;28;3045;-58
2022/10/18 00:21:53;;;;;;;;;;;;;;;21.84;62.31;101984.06;5013248;28;2634;-57
2022/10/18 00:24:20;;;;;;;;;;;;;;;21.84;62.27;101980.44;5007879;28;3100;-57
2022/10/18 00:26:46;;;;;;;;;;;;;;;21.85;62.11;101990.56;5008979;28;2938;-57
2022/10/18 00:29:13;;;;;;;;;;;;;;;21.84;62.02;101989.09;5011408;28;2602;-57
2022/10/18 00:31:39;;;;;;;;;;;;;;;21.85;62.29;101994.22;5001011;28;2768;-57
2022/10/18 00:34:06;;;;;;;;;;;;;;;21.84;62.28;101995.59;5001383;28;2891;-57
2022/10/18 00:36:33;;;;;;;;;;;;;;;21.83;62.44;101996.22;5023785;28;2654;-58
2022/10/18 00:38:59;;;;;;;;;;;;;;;21.83;62.22;102002.75;5006465;28;2760;-58
2022/10/18 00:41:28;;;;;;;;;;;;;;;21.84;62.20;102006.41;5008324;28;2827;-57
2022/10/18 00:44:09;;;;;;;;;;;;;;;21.82;62.37;101992.59;5010795;28;2922;-58
2022/10/18 00:46:36;;;;;;;;;;;;;;;21.82;62.30;101992.59;5007816;28;2828;-57
2022/10/18 00:49:08;;;;;;;;;;;;;;;21.82;62.08;101997.63;5007594;28;2930;-58
2022/10/18 00:51:36;;;;;;;;;;;;;;;21.82;62.32;101992.59;5021208;28;3075;-57
2022/10/18 00:54:02;;;;;;;;;;;;;;;21.80;62.24;101992.47;5010225;28;2729;-58
2022/10/18 00:56:28;;;;;;;;;;;;;;;21.81;62.13;101996.13;5008953;28;2874;-58
2022/10/18 00:58:55;;;;;;;;;;;;;;;21.82;62.17;101997.63;5010995;28;2878;-57
2022/10/18 01:01:21;;;;;;;;;;;;;;;21.81;62.10;102004.78;5021128;28;2958;-58
2022/10/18 01:03:53;;;;;;;;;;;;;;;21.80;62.30;102001.13;5007179;28;2905;-57
2022/10/18 01:06:19;;;;;;;;;;;;;;;21.80;62.23;102001.13;5008478;28;3032;-57
2022/10/18 01:08:49;;;;;;;;;;;;;;;21.80;62.24;102006.16;5009751;28;2631;-57
2022/10/18 01:11:28;;;;;;;;;;;;;;;21.80;62.22;102009.78;5012455;28;3048;-58
2022/10/18 01:14:10;;;;;;;;;;;;;;;21.80;62.31;102009.03;5023817;28;1702;-57
2022/10/18 01:16:42;;;;;;;;;;;;;;;21.79;62.36;102004.66;5016721;28;3406;-58
2022/10/18 01:19:35;;;;;;;;;;;;;;;21.78;62.25;102009.66;5011206;28;2854;-57
2022/10/18 01:22:03;;;;;;;;;;;;;;;21.79;62.46;102001.78;5025139;28;2738;-58
2022/10/18 01:24:43;;;;;;;;;;;;;;;21.79;62.24;102004.66;5016670;28;2895;-57
2022/10/18 01:27:18;;;;;;;;;;;;;;;21.79;62.00;101999.63;5027382;28;2909;-58
2022/10/18 01:29:44;;;;;;;;;;;;;;;21.78;62.23;101998.13;5016414;28;2565;-58
2022/10/18 01:32:15;;;;;;;;;;;;;;;21.78;62.33;101997.38;5009516;28;2933;-57
2022/10/18 01:34:42;;;;;;;;;;;;;;;21.78;62.38;101997.38;5015168;28;2947;-57
2022/10/18 01:37:10;;;;;;;;;;;;;;;21.78;62.38;101988.72;5016000;28;3139;-57
2022/10/18 01:39:36;;;;;;;;;;;;;;;21.77;62.04;101990.13;5017272;28;2721;-57
2022/10/18 01:42:05;;;;;;;;;;;;;;;21.77;62.40;101993.75;5047920;28;2792;-57
2022/10/18 01:44:31;;;;;;;;;;;;;;;21.77;62.42;101990.13;5020291;28;1794;-57
2022/10/18 01:46:57;;;;;;;;;;;;;;;21.77;62.52;101996.63;5012470;28;2870;-58
2022/10/18 01:49:24;;;;;;;;;;;;;;;21.77;62.28;102001.66;5015867;28;2769;-57
2022/10/18 01:51:50;;;;;;;;;;;;;;;21.77;62.21;102004.53;5013928;28;2987;-57
2022/10/18 01:54:18;;;;;;;;;;;;;;;21.75;62.21;101997.25;5020863;28;3151;-57
2022/10/18 01:56:59;;;;;;;;;;;;;;;21.77;62.52;101995.88;5017189;28;2618;-58
2022/10/18 01:59:33;;;;;;;;;;;;;;;21.75;62.52;102000.13;5017251;28;2742;-57
2022/10/18 02:02:08;;;;;;;;;;;;;;;21.77;62.38;102002.41;5028865;28;2913;-58
2022/10/18 02:04:39;;;;;;;;;;;;;;;21.75;62.56;102000.13;5032207;28;2883;-57
2022/10/18 02:07:08;;;;;;;;;;;;;;;21.74;62.57;101998.66;5013943;28;2782;-57
2022/10/18 02:09:38;;;;;;;;;;;;;;;21.75;62.50;101984.97;5011406;28;2932;-57
2022/10/18 02:12:05;;;;;;;;;;;;;;;21.75;62.50;101977.06;5015441;28;2864;-58
2022/10/18 02:14:31;;;;;;;;;;;;;;;21.75;62.24;101988.59;5009875;28;2828;-57
2022/10/18 02:16:57;;;;;;;;;;;;;;;21.74;62.44;101998.66;5012329;28;2596;-58
2022/10/18 02:19:32;;;;;;;;;;;;;;;21.74;62.55;101995.03;5022803;28;2763;-57
2022/10/18 02:21:58;;;;;;;;;;;;;;;21.75;62.61;101994.38;5021346;28;2660;-57
2022/10/18 02:24:26;;;;;;;;;;;;;;;21.75;62.32;102003.03;5008748;28;2798;-57
2022/10/18 02:26:52;;;;;;;;;;;;;;;21.75;62.53;102008.03;5028734;28;3356;-58
2022/10/18 02:29:19;;;;;;;;;;;;;;;21.74;62.67;102010.19;5014721;28;2613;-57
2022/10/18 02:31:46;;;;;;;;;;;;;;;21.74;62.57;102015.94;5013807;28;2883;-58
2022/10/18 02:34:17;;;;;;;;;;;;;;;21.73;62.41;102019.44;5006811;28;3002;-58
2022/10/18 02:36:49;;;;;;;;;;;;;;;21.74;62.73;102021.72;5007683;28;2816;-57
2022/10/18 02:39:16;;;;;;;;;;;;;;;21.73;62.43;102020.19;5018432;28;2851;-57
2022/10/18 02:41:43;;;;;;;;;;;;;;;21.74;62.69;102015.94;5011681;28;2806;-57
2022/10/18 02:44:09;;;;;;;;;;;;;;;21.74;62.68;102009.44;5017391;28;2582;-57
2022/10/18 02:46:35;;;;;;;;;;;;;;;21.75;62.60;102008.03;5015051;28;2911;-57
2022/10/18 02:49:02;;;;;;;;;;;;;;;21.75;62.52;102016.69;5013365;28;1775;-57
2022/10/18 02:51:28;;;;;;;;;;;;;;;21.78;62.32;102014.66;5012901;28;3062;-58
2022/10/18 02:53:54;;;;;;;;;;;;;;;21.77;62.50;102008.16;5019197;28;1831;-57
2022/10/18 02:56:21;;;;;;;;;;;;;;;21.76;62.31;102012.41;5012599;28;2846;-57
2022/10/18 02:58:47;;;;;;;;;;;;;;;21.77;62.68;102021.84;5013525;28;2760;-57
2022/10/18 03:01:13;;;;;;;;;;;;;;;21.77;62.67;102018.94;5011420;28;2944;-58
2022/10/18 03:03:40;;;;;;;;;;;;;;;21.75;62.60;102028.97;5007865;28;2862;-57
2022/10/18 03:06:06;;;;;;;;;;;;;;;21.75;62.65;102040.50;5015677;28;2778;-57
2022/10/18 03:08:32;;;;;;;;;;;;;;;21.74;62.42;102050.53;5013536;28;2820;-57
2022/10/18 03:10:59;;;;;;;;;;;;;;;21.75;62.62;102037.63;5016509;28;2793;-58
2022/10/18 03:13:25;;;;;;;;;;;;;;;21.74;62.41;102044.78;5012773;28;2633;-57
2022/10/18 03:15:51;;;;;;;;;;;;;;;21.75;62.59;102039.75;5009396;28;2839;-57
2022/10/18 03:18:18;;;;;;;;;;;;;;;21.75;62.31;102034.00;5008288;28;2823;-57
2022/10/18 03:20:44;;;;;;;;;;;;;;;21.76;62.41;102032.59;5012670;28;2874;-58
2022/10/18 03:23:10;;;;;;;;;;;;;;;21.74;62.42;102032.50;5013160;28;2632;-57
2022/10/18 03:25:37;;;;;;;;;;;;;;;21.74;62.59;102039.00;5013596;28;2836;-57
2022/10/18 03:28:08;;;;;;;;;;;;;;;21.72;62.88;102041.78;5014076;28;2525;-57
2022/10/18 03:30:34;;;;;;;;;;;;;;;21.71;62.53;102040.25;5012294;28;2849;-57
2022/10/18 03:33:00;;;;;;;;;;;;;;;21.72;62.60;102047.53;5012494;28;2553;-58
2022/10/18 03:35:27;;;;;;;;;;;;;;;21.71;62.62;102043.13;5011928;28;2660;-58
2022/10/18 03:37:53;;;;;;;;;;;;;;;21.72;62.51;102035.25;5012530;28;2985;-57
2022/10/18 03:40:19;;;;;;;;;;;;;;;21.72;62.76;102036.00;5016384;28;2814;-57
2022/10/18 03:42:46;;;;;;;;;;;;;;;21.73;62.52;102037.50;5015467;28;2788;-58
2022/10/18 03:45:12;;;;;;;;;;;;;;;21.71;62.77;102034.50;5015484;28;2817;-58
2022/10/18 03:47:38;;;;;;;;;;;;;;;21.73;62.82;102036.75;5014381;28;2371;-57
2022/10/18 03:50:05;;;;;;;;;;;;;;;21.73;62.45;102037.50;5015165;28;2380;-57
2022/10/18 03:52:31;;;;;;;;;;;;;;;21.72;62.78;102044.66;5013584;28;2798;-57
2022/10/18 03:54:58;;;;;;;;;;;;;;;21.72;62.65;102046.78;5010851;28;2961;-58
2022/10/18 03:57:24;;;;;;;;;;;;;;;21.72;62.71;102041.03;5008705;28;3025;-58
2022/10/18 03:59:50;;;;;;;;;;;;;;;21.73;62.77;102043.25;5012569;28;2516;-58
2022/10/18 04:02:17;;;;;;;;;;;;;;;21.71;62.38;102045.28;5011420;28;2581;-58
2022/10/18 04:04:43;;;;;;;;;;;;;;;21.70;62.59;102044.53;5011328;28;2862;-58
2022/10/18 04:07:09;;;;;;;;;;;;;;;21.70;62.81;102038.03;5009161;28;2974;-58
2022/10/18 04:09:36;;;;;;;;;;;;;;;21.71;62.81;102034.50;5012231;28;3006;-57
2022/10/18 04:12:02;;;;;;;;;;;;;;;21.71;62.84;102034.50;5011771;28;3100;-58
2022/10/18 04:14:28;;;;;;;;;;;;;;;21.71;62.75;102034.50;5008204;28;2926;-58
2022/10/18 04:16:55;;;;;;;;;;;;;;;21.68;62.71;102035.75;5001615;28;2970;-58
2022/10/18 04:19:21;;;;;;;;;;;;;;;21.69;62.75;102028.63;5009920;28;2806;-58
2022/10/18 04:21:47;;;;;;;;;;;;;;;21.69;62.98;102031.50;5009173;28;2810;-58
2022/10/18 04:24:15;;;;;;;;;;;;;;;21.68;62.93;102032.88;5008414;28;2542;-58
2022/10/18 04:26:41;;;;;;;;;;;;;;;21.66;62.93;102026.97;5010705;28;2830;-58
2022/10/18 04:29:08;;;;;;;;;;;;;;;21.67;63.04;102034.28;5014784;28;2925;-59
2022/10/18 04:31:34;;;;;;;;;;;;;;;21.67;62.86;102040.03;5014795;28;2865;-50
2022/10/18 04:34:03;;;;;;;;;;;;;;;21.69;62.96;102028.63;5012531;28;3010;-59
2022/10/18 04:36:29;;;;;;;;;;;;;;;21.69;63.17;102030.75;5009247;28;2950;-55
2022/10/18 04:38:56;;;;;;;;;;;;;;;21.66;63.31;102026.97;5008095;28;2406;-60
2022/10/18 04:44:44;;;;;;;;;;;;;;;21.66;63.40;102021.22;5008679;28;2248;-59
2022/10/18 04:47:10;;;;;;;;;;;;;;;21.70;62.90;102032.25;5016982;28;2208;-60
2022/10/18 04:49:37;;;;;;;;;;;;;;;21.70;63.15;102032.25;5011782;28;2885;-59
2022/10/18 04:52:03;;;;;;;;;;;;;;;21.68;63.06;102024.22;5014258;28;2802;-59
2022/10/18 04:54:29;;;;;;;;;;;;;;;21.68;62.84;102027.09;5012153;28;2890;-59
2022/10/18 04:56:56;;;;;;;;;;;;;;;21.69;62.91;102024.97;5012389;28;1740;-59
2022/10/18 04:59:22;;;;;;;;;;;;;;;21.67;62.86;102024.84;5009674;28;1739;-60
2022/10/18 05:01:48;;;;;;;;;;;;;;;21.67;62.80;102031.38;5015830;28;1926;-59
2022/10/18 05:04:15;;;;;;;;;;;;;;;21.66;62.86;102026.97;5010865;28;2718;-59
2022/10/18 05:06:41;;;;;;;;;;;;;;;21.65;62.95;102022.63;5013510;28;3073;-59
2022/10/18 05:09:07;;;;;;;;;;;;;;;21.65;63.03;102005.31;5016218;28;1783;-60
2022/10/18 05:11:34;;;;;;;;;;;;;;;21.67;62.84;102011.22;5016098;28;2671;-59
2022/10/18 05:14:00;;;;;;;;;;;;;;;21.66;63.00;102008.94;5012674;28;1738;-59
2022/10/18 05:16:27;;;;;;;;;;;;;;;21.65;62.75;102002.44;5012567;28;2244;-59
2022/10/18 05:18:53;;;;;;;;;;;;;;;21.66;62.55;102006.81;5013060;28;1747;-59
2022/10/18 05:21:19;;;;;;;;;;;;;;;21.66;62.56;102006.06;5013901;28;2782;-60
2022/10/18 05:23:46;;;;;;;;;;;;;;;21.65;62.90;102005.31;5009934;28;1870;-60
2022/10/18 05:26:12;;;;;;;;;;;;;;;21.65;62.91;102013.97;5009116;28;2872;-60
2022/10/18 05:28:38;;;;;;;;;;;;;;;21.65;62.68;102007.47;5011916;28;2853;-59
2022/10/18 05:31:07;;;;;;;;;;;;;;;21.65;62.82;102016.09;5009525;28;1730;-59
2022/10/18 05:33:33;;;;;;;;;;;;;;;21.65;62.90;102013.97;5010662;28;2793;-59
2022/10/18 05:35:59;;;;;;;;;;;;;;;21.65;62.79;102021.88;5001366;28;2703;-59
2022/10/18 05:38:26;;;;;;;;;;;;;;;21.65;62.74;102019.72;5013784;28;1910;-59
2022/10/18 05:40:52;;;;;;;;;;;;;;;21.66;62.75;102026.97;5010412;28;2501;-59
2022/10/18 05:43:18;;;;;;;;;;;;;;;21.65;62.77;102025.50;5013111;28;1850;-59
2022/10/18 05:45:49;;;;;;;;;;;;;;;21.65;62.78;102025.50;5012247;28;2725;-62
2022/10/18 05:48:16;;;;;;;;;;;;;;;21.66;62.77;102026.97;5013461;28;1938;-59
2022/10/18 05:50:42;;;;;;;;;;;;;;;21.65;62.87;102025.50;5012395;28;2826;-59
2022/10/18 05:53:08;;;;;;;;;;;;;;;21.65;62.79;102008.19;5004936;28;2742;-59
2022/10/18 05:55:49;;;;;;;;;;;;;;;21.66;62.53;102017.59;5007001;28;1680;-59
2022/10/18 05:58:16;;;;;;;;;;;;;;;21.66;62.56;102003.91;5011190;28;2763;-59
2022/10/18 06:00:42;;;;;;;;;;;;;;;21.66;62.79;102001.03;5014818;28;1766;-59
2022/10/18 06:03:08;;;;;;;;;;;;;;;21.67;62.72;101998.91;5009066;28;2774;-59
2022/10/18 06:05:35;;;;;;;;;;;;;;;21.67;62.76;101998.91;5013084;28;3154;-59
2022/10/18 06:08:01;;;;;;;;;;;;;;;21.66;62.67;101998.16;5016094;28;2838;-59
2022/10/18 06:10:33;;;;;;;;;;;;;;;21.67;62.58;102002.56;5018676;28;2854;-59
2022/10/18 06:12:59;;;;;;;;;;;;;;;21.68;62.66;102001.16;5007049;28;1636;-59
2022/10/18 06:15:25;;;;;;;;;;;;;;;21.68;62.61;102006.94;5013301;28;3017;-59
2022/10/18 06:17:52;;;;;;;;;;;;;;;21.64;62.58;101995.16;5015136;28;1876;-60
2022/10/18 06:20:18;;;;;;;;;;;;;;;21.62;62.55;101989.25;5012748;28;1781;-59
2022/10/18 06:22:45;;;;;;;;;;;;;;;21.66;62.59;101986.63;5016813;28;1548;-58
2022/10/18 06:25:11;;;;;;;;;;;;;;;21.66;62.50;101988.75;5019516;28;1800;-58
2022/10/18 06:27:37;;;;;;;;;;;;;;;21.67;62.52;101991.03;5013977;28;2522;-58
2022/10/18 06:30:04;;;;;;;;;;;;;;;21.67;62.62;101984.47;5012757;28;1978;-59
2022/10/18 06:32:30;;;;;;;;;;;;;;;21.69;62.32;101994.03;5016847;28;1677;-58
2022/10/18 06:34:57;;;;;;;;;;;;;;;21.67;62.38;101999.69;5016660;28;1637;-59
2022/10/18 06:37:23;;;;;;;;;;;;;;;21.65;62.71;102002.44;5015607;28;1851;-58
2022/10/18 06:39:49;;;;;;;;;;;;;;;21.66;62.80;102009.69;5015896;28;1550;-58
2022/10/18 06:42:16;;;;;;;;;;;;;;;21.65;62.59;102013.22;5013722;28;1618;-59
2022/10/18 06:44:47;;;;;;;;;;;;;;;21.65;62.81;102008.19;5014388;28;1711;-58
2022/10/18 06:47:13;;;;;;;;;;;;;;;21.61;63.24;102015.84;5021532;28;1914;-60
2022/10/18 06:49:39;;;;;;;;;;;;;;;21.69;62.70;102019.19;5017642;28;1800;-57
2022/10/18 06:52:06;;;;;;;;;;;;;;;21.41;63.01;102027.66;5014633;28;1779;-57
2022/10/18 06:54:32;;;;;;;;;;;;;;;21.23;63.78;102027.25;5017627;28;1753;-58
2022/10/18 06:57:01;;;;;;;;;;;;;;;21.15;64.10;102020.28;5017309;28;1618;-56
2022/10/18 06:59:27;;;;;;;;;;;;;;;21.10;64.11;102022.91;5016559;28;1670;-57
2022/10/18 07:01:56;;;;;;;;;;;;;;;21.13;64.00;102038.16;5015298;28;1649;-57
2022/10/18 07:04:23;;;;;;;;;;;;;;;21.13;64.17;102044.69;5006850;28;1866;-57
2022/10/18 07:06:49;;;;;;;;;;;;;;;21.19;63.87;102050.06;5016928;28;2695;-56
2022/10/18 07:09:15;;;;;;;;;;;;;;;21.26;63.62;102054.09;5007491;28;3194;-58
2022/10/18 07:11:42;;;;;;;;;;;;;;;21.22;63.91;102054.56;5016414;28;2687;-58
2022/10/18 07:17:35;;;;;;;;;;;;;;;21.11;64.49;102066.84;5013423;28;1581;-57
2022/10/18 07:20:03;;;;;;;;;;;;;;;21.08;64.65;102082.50;4998262;28;1804;-57
2022/10/18 07:22:29;;;;;;;;;;;;;;;21.08;64.92;102085.38;5008630;28;2965;-57
2022/10/18 07:24:55;;;;;;;;;;;;;;;21.07;65.24;102098.25;5013933;28;2916;-59
2022/10/18 07:27:22;;;;;;;;;;;;;;;21.08;64.89;102091.13;5014950;28;2867;-59
2022/10/18 07:29:48;;;;;;;;;;;;;;;21.09;65.36;102089.75;5013190;28;2830;-60
2022/10/18 07:32:15;;;;;;;;;;;;;;;21.17;64.98;102093.16;5016578;28;2854;-59
2022/10/18 07:34:41;;;;;;;;;;;;;;;21.27;64.32;102085.13;5011338;28;2918;-57
2022/10/18 07:37:08;;;;;;;;;;;;;;;21.26;64.31;102085.78;5013227;28;2580;-60
2022/10/18 07:39:35;;;;;;;;;;;;;;;21.23;64.46;102072.59;5013506;28;2801;-60
2022/10/18 07:42:01;;;;;;;;;;;;;;;21.24;64.70;102080.63;5013258;28;2869;-60
2022/10/18 07:44:27;;;;;;;;;;;;;;;21.22;64.79;102080.50;5014467;28;2869;-59
2022/10/18 07:46:54;;;;;;;;;;;;;;;21.15;64.92;102075.00;5014345;28;3054;-60
2022/10/18 07:49:20;;;;;;;;;;;;;;;21.17;65.21;102078.00;5011978;28;2549;-54
2022/10/18 07:51:47;;;;;;;;;;;;;;;21.09;65.50;102078.22;5014180;28;2676;-58
2022/10/18 07:54:13;;;;;;;;;;;;;;;21.17;65.43;102078.75;5011875;28;2727;-56
2022/10/18 07:56:39;;;;;;;;;;;;;;;21.28;65.13;102080.88;5012759;28;2869;-58
2022/10/18 07:59:06;;;;;;;;;;;;;;;21.33;64.91;102079.75;5010482;28;2996;-55
2022/10/18 08:01:32;;;;;;;;;;;;;;;21.42;64.18;102074.53;5014056;28;1757;-57
2022/10/18 08:03:59;;;;;;;;;;;;;;;21.46;63.80;102077.63;5028182;28;2872;-56
2022/10/18 08:06:32;;;;;;;;;;;;;;;21.48;63.76;102072.00;5016848;28;1625;-56
2022/10/18 08:08:58;;;;;;;;;;;;;;;21.47;63.54;102062.63;5013910;28;1985;-55
2022/10/18 08:11:25;;;;;;;;;;;;;;;21.51;63.51;102070.75;5013670;28;1839;-55
2022/10/18 08:13:52;;;;;;;;;;;;;;;21.52;63.56;102069.38;5017571;28;1681;-56
2022/10/18 08:16:19;;;;;;;;;;;;;;;21.53;63.07;102067.97;5014755;28;2862;-55
2022/10/18 08:18:45;;;;;;;;;;;;;;;21.55;63.40;102071.00;5015073;28;1609;-53
2022/10/18 08:21:12;;;;;;;;;;;;;;;21.55;63.51;102068.09;5012887;28;1867;-56
2022/10/18 08:23:38;;;;;;;;;;;;;;;21.56;63.33;102068.88;5011057;28;1807;-54
2022/10/18 08:26:06;;;;;;;;;;;;;;;21.56;63.40;102066.75;5008978;28;1751;-55
2022/10/18 08:28:35;;;;;;;;;;;;;;;21.57;63.02;102068.22;5015962;28;1934;-55
2022/10/18 08:31:11;;;;;;;;;;;;;;;21.57;63.09;102059.59;5013598;28;1638;-56
2022/10/18 08:33:38;;;;;;;;;;;;;;;21.57;63.13;102058.84;5015729;28;1581;-56
2022/10/18 08:36:05;;;;;;;;;;;;;;;21.58;63.49;102061.09;5014231;28;2850;-56
2022/10/18 08:38:35;;;;;;;;;;;;;;;21.58;63.37;102066.88;5014403;28;2838;-56
2022/10/18 08:41:05;;;;;;;;;;;;;;;21.59;63.15;102065.47;5016041;28;1951;-56
2022/10/18 08:43:36;;;;;;;;;;;;;;;21.60;63.20;102072.75;5016292;28;3111;-56
2022/10/18 08:46:03;;;;;;;;;;;;;;;21.59;63.69;102062.59;5016226;28;1882;-55
2022/10/18 08:48:39;;;;;;;;;;;;;;;21.61;63.89;102071.38;5014642;28;1906;-57
2022/10/18 08:51:06;;;;;;;;;;;;;;;21.62;63.56;102077.88;5013821;28;2118;-55
2022/10/18 08:53:34;;;;;;;;;;;;;;;21.62;63.80;102072.84;5015532;28;2869;-57
2022/10/18 08:56:09;;;;;;;;;;;;;;;21.62;63.74;102072.84;5012477;28;1800;-55
2022/10/18 08:58:36;;;;;;;;;;;;;;;21.62;63.48;102081.50;5012750;28;1608;-55
2022/10/18 09:01:02;;;;;;;;;;;;;;;21.63;63.80;102085.91;5013875;28;1588;-56
2022/10/18 09:03:41;;;;;;;;;;;;;;;21.63;63.42;102083.03;5013749;28;1812;-55
2022/10/18 09:06:17;;;;;;;;;;;;;;;21.63;63.44;102083.03;5016581;28;1605;-56
2022/10/18 09:09:10;;;;;;;;;;;;;;;21.63;63.55;102082.28;5024294;28;1985;-55
2022/10/18 09:11:40;;;;;;;;;;;;;;;21.64;63.45;102087.41;5013280;28;1822;-55
2022/10/18 09:14:25;;;;;;;;;;;;;;;21.62;64.08;102081.50;5014979;28;1667;-55
2022/10/18 09:16:56;;;;;;;;;;;;;;;21.62;63.85;102072.13;5015518;28;2806;-55
2022/10/18 09:19:28;;;;;;;;;;;;;;;21.62;63.58;102072.13;5010903;28;2913;-55
2022/10/18 09:21:56;;;;;;;;;;;;;;;21.62;63.18;102072.84;5020616;28;2678;-56
2022/10/18 09:24:35;;;;;;;;;;;;;;;21.62;63.30;102075.00;5011793;28;3069;-53
2022/10/18 09:27:09;;;;;;;;;;;;;;;21.61;63.41;102076.38;5013239;28;2711;-54
2022/10/18 09:29:36;;;;;;;;;;;;;;;21.60;63.12;102081.41;5007672;28;3158;-56
2022/10/18 09:32:03;;;;;;;;;;;;;;;21.63;63.10;102073.63;5017504;28;3095;-55
2022/10/18 09:34:49;;;;;;;;;;;;;;;21.63;62.84;102067.88;5017290;28;2649;-55
2022/10/18 09:37:16;;;;;;;;;;;;;;;21.63;62.56;102064.97;5019816;28;1677;-56
2022/10/18 09:39:42;;;;;;;;;;;;;;;21.64;62.44;102058.56;5019909;28;1657;-56
2022/10/18 09:42:13;;;;;;;;;;;;;;;21.59;63.37;102068.34;5019149;28;1950;-56
2022/10/18 09:44:40;;;;;;;;;;;;;;;21.61;63.55;102065.59;5033725;28;1722;-57
2022/10/18 09:47:09;;;;;;;;;;;;;;;21.69;63.93;102071.88;5009929;28;2877;-57
2022/10/18 09:49:42;;;;;;;;;;;;;;;21.69;63.64;102071.09;5019550;28;1970;-57
2022/10/18 09:52:12;;;;;;;;;;;;;;;21.66;63.86;102078.13;5032755;28;1752;-58
2022/10/18 09:54:40;;;;;;;;;;;;;;;21.67;63.74;102074.63;5025342;28;1528;-57
2022/10/18 09:57:12;;;;;;;;;;;;;;;21.68;63.87;102081.88;5018907;28;1646;-57
2022/10/18 09:59:45;;;;;;;;;;;;;;;21.65;63.58;102083.16;5018084;28;1861;-57
2022/10/18 10:02:12;;;;;;;;;;;;;;;21.63;63.53;102080.16;5019782;28;1593;-57
2022/10/18 10:04:39;;;;;;;;;;;;;;;21.64;63.41;102087.41;5019672;28;1848;-57
2022/10/18 10:07:06;;;;;;;;;;;;;;;21.65;63.50;102077.38;5019294;28;1602;-56
2022/10/18 10:09:39;;;;;;;;;;;;;;;21.66;63.47;102067.34;5017586;28;1902;-57
2022/10/18 10:12:21;;;;;;;;;;;;;;;21.67;64.32;102065.97;5018853;28;1804;-62
2022/10/18 10:14:47;;;;;;;;;;;;;;;21.66;70.08;102055.81;5024846;28;1703;-65
2022/10/18 10:17:21;;;;;;;;;;;;;;;21.59;70.46;102071.25;5017435;28;1570;-64
2022/10/18 10:20:06;;;;;;;;;;;;;;;21.58;71.93;102066.88;5031106;28;1583;-64
2022/10/18 10:22:35;;;;;;;;;;;;;;;21.57;73.83;102065.34;5012679;28;1851;-65
2022/10/18 10:25:01;;;;;;;;;;;;;;;21.53;70.11;102065.09;5016561;28;1662;-65
2022/10/18 10:27:30;;;;;;;;;;;;;;;21.57;68.68;102071.13;5018011;28;1616;-65
2022/10/18 10:29:57;;;;;;;;;;;;;;;21.59;68.60;102061.84;5028471;28;1918;-65
2022/10/18 10:32:30;;;;;;;;;;;;;;;21.59;68.28;102059.72;5017579;28;1538;-65
2022/10/18 10:34:56;;;;;;;;;;;;;;;21.59;68.20;102062.59;5014487;28;1692;-65
2022/10/18 10:37:30;;;;;;;;;;;;;;;21.60;67.67;102057.56;5017905;28;1839;-65
2022/10/18 10:40:06;;;;;;;;;;;;;;;21.59;67.92;102053.94;5019334;28;1673;-65
2022/10/18 10:42:50;;;;;;;;;;;;;;;21.59;67.79;102041.69;5014143;28;1597;-65
2022/10/18 10:45:16;;;;;;;;;;;;;;;21.59;67.65;102036.66;5018917;28;1870;-65
2022/10/18 10:47:42;;;;;;;;;;;;;;;21.59;67.39;102033.78;5019024;28;1573;-65
2022/10/18 10:50:12;;;;;;;;;;;;;;;21.61;66.11;102025.25;5021188;28;1919;-69
2022/10/18 10:52:38;;;;;;;;;;;;;;;21.63;66.17;102033.28;5009628;28;1661;-70
2022/10/18 10:55:05;;;;;;;;;;;;;;;21.63;66.30;102036.91;5014543;28;1687;-70
2022/10/18 10:57:52;;;;;;;;;;;;;;;21.65;66.11;102039.16;5022148;28;2138;-71
2022/10/18 11:00:33;;;;;;;;;;;;;;;21.65;65.65;102044.94;5029394;28;1658;-64
2022/10/18 11:03:11;;;;;;;;;;;;;;;21.65;66.03;102044.94;5012151;28;1566;-69
2022/10/18 11:05:54;;;;;;;;;;;;;;;21.64;68.04;102040.53;5013983;28;1633;-66
2022/10/18 11:08:24;;;;;;;;;;;;;;;21.58;70.43;102034.38;5033713;28;1985;-67
2022/10/18 11:10:56;;;;;;;;;;;;;;;21.52;70.93;102017.50;5016163;28;1589;-67
2022/10/18 11:13:34;;;;;;;;;;;;;;;21.51;70.44;102016.00;5017137;28;1640;-68
2022/10/18 11:16:04;;;;;;;;;;;;;;;21.56;69.67;102028.53;5017078;28;1732;-68
2022/10/18 11:18:31;;;;;;;;;;;;;;;21.59;68.59;102030.88;5016942;28;1839;-65
2022/10/18 11:21:11;;;;;;;;;;;;;;;21.63;67.92;102039.03;5031176;28;1736;-68
2022/10/18 11:23:38;;;;;;;;;;;;;;;21.64;67.82;102041.28;5015840;28;1780;-61
2022/10/18 11:26:10;;;;;;;;;;;;;;;21.62;67.85;102032.50;5016876;28;1700;-66
2022/10/18 11:28:52;;;;;;;;;;;;;;;21.60;68.60;102038.16;5017901;28;1910;-65
2022/10/18 11:31:21;;;;;;;;;;;;;;;21.60;68.12;102035.28;5032287;28;1756;-65
2022/10/18 11:33:58;;;;;;;;;;;;;;;21.62;67.96;102032.50;5017643;28;1581;-64
2022/10/18 11:36:46;;;;;;;;;;;;;;;21.63;67.64;102031.13;5022478;28;1640;-66
2022/10/18 11:39:42;;;;;;;;;;;;;;;21.63;67.33;102031.13;5018195;28;1920;-65
2022/10/18 11:42:20;;;;;;;;;;;;;;;21.60;67.76;102023.75;5032042;28;1680;-66
2022/10/18 11:45:16;;;;;;;;;;;;;;;21.56;67.60;102023.50;5017694;28;1663;-65
2022/10/18 11:47:42;;;;;;;;;;;;;;;21.53;67.31;102014.00;5008152;28;1805;-65
2022/10/18 11:50:15;;;;;;;;;;;;;;;21.57;67.50;102013.47;5014055;28;1968;-65
2022/10/18 11:52:44;;;;;;;;;;;;;;;21.60;66.98;102006.47;5032083;28;1705;-65
2022/10/18 11:55:28;;;;;;;;;;;;;;;21.62;66.87;102000.78;5025723;28;1803;-64
2022/10/18 11:57:58;;;;;;;;;;;;;;;21.64;66.79;102006.69;5014873;28;2204;-65
2022/10/18 12:00:27;;;;;;;;;;;;;;;21.64;66.53;102003.81;5012009;28;2880;-66
2022/10/18 12:02:59;;;;;;;;;;;;;;;21.65;66.42;102016.84;5018677;28;3052;-68
2022/10/18 12:05:25;;;;;;;;;;;;;;;21.65;65.99;102008.19;5027710;28;2859;-63
2022/10/18 12:07:53;;;;;;;;;;;;;;;21.61;65.58;102019.47;5010913;28;2909;-66
2022/10/18 12:10:20;;;;;;;;;;;;;;;21.67;65.60;102019.84;5013072;28;3239;-69
2022/10/18 12:13:06;;;;;;;;;;;;;;;21.66;65.82;102014.72;5014283;28;1561;-62
2022/10/18 12:15:34;;;;;;;;;;;;;;;21.52;66.38;102017.50;5010944;28;1568;-62
2022/10/18 12:18:02;;;;;;;;;;;;;;;21.52;66.50;102020.38;5011647;28;1623;-62
2022/10/18 12:20:29;;;;;;;;;;;;;;;21.57;66.38;102009.84;5018076;28;1632;-62
2022/10/18 12:23:02;;;;;;;;;;;;;;;21.58;66.65;102014.22;5017047;28;1656;-62
2022/10/18 12:25:29;;;;;;;;;;;;;;;21.58;66.46;102002.69;5011642;28;1678;-62
2022/10/18 12:28:08;;;;;;;;;;;;;;;21.59;66.26;102007.09;5026461;28;1598;-62
2022/10/18 12:30:52;;;;;;;;;;;;;;;21.57;66.55;102007.72;5016506;28;1993;-62
2022/10/18 12:33:25;;;;;;;;;;;;;;;21.54;66.39;101991.69;5041990;28;1845;-61
2022/10/18 12:36:05;;;;;;;;;;;;;;;21.55;66.43;101998.94;5011590;28;1832;-62
2022/10/18 12:38:32;;;;;;;;;;;;;;;21.56;66.18;102005.47;5014909;28;1731;-62
2022/10/18 12:40:58;;;;;;;;;;;;;;;21.56;66.47;101994.69;5018035;28;1662;-62
2022/10/18 12:43:25;;;;;;;;;;;;;;;21.56;66.25;101993.94;5020442;28;1732;-62
2022/10/18 12:45:56;;;;;;;;;;;;;;;21.54;66.31;101988.81;5015986;28;1822;-61
2022/10/18 12:48:31;;;;;;;;;;;;;;;21.55;66.43;101987.41;5005797;28;1857;-62
2022/10/18 12:51:14;;;;;;;;;;;;;;;21.50;66.13;101985.66;5008276;28;1641;-62
2022/10/18 12:53:41;;;;;;;;;;;;;;;21.45;66.26;101989.69;5012523;28;2762;-65
2022/10/18 12:56:26;;;;;;;;;;;;;;;21.52;66.09;101994.44;5010931;28;3017;-63
2022/10/18 12:59:11;;;;;;;;;;;;;;;21.55;65.93;101993.16;5012957;28;2901;-63
2022/10/18 13:01:49;;;;;;;;;;;;;;;21.55;65.94;101987.41;5010341;28;2595;-62
2022/10/18 13:04:28;;;;;;;;;;;;;;;21.54;66.24;101991.69;5011724;28;2771;-61
2022/10/18 13:06:58;;;;;;;;;;;;;;;21.53;66.36;101990.16;5012753;28;2735;-61